sensor_id;sensor_type;location;lat;lon;timestamp;P1;durP1;ratioP1;P2;durP2;ratioP2
20022;SDS011;10172;42.054;24.546;2023-04-01T00:00:23;2.63;;;1.65;;
20022;SDS011;10172;42.054;24.546;2023-04-01T00:02:49;2.45;;;1.30;;
20022;SDS011;10172;42.054;24.546;2023-04-01T00:05:15;6.72;;;2.08;;
20022;SDS011;10172;42.054;24.546;2023-04-01T00:07:41;2.55;;;1.73;;
20022;SDS011;10172;42.054;24.546;2023-04-01T00:10:08;4.85;;;2.05;;
20022;SDS011;10172;42.054;24.546;2023-04-01T00:12:36;5.05;;;2.83;;
20022;SDS011;10172;42.054;24.546;2023-04-01T00:15:02;5.03;;;2.08;;
20022;SDS011;10172;42.054;24.546;2023-04-01T00:17:29;2.95;;;1.77;;
20022;SDS011;10172;42.054;24.546;2023-04-01T00:19:55;4.13;;;2.00;;
20022;SDS011;10172;42.054;24.546;2023-04-01T00:22:21;3.70;;;1.55;;
20022;SDS011;10172;42.054;24.546;2023-04-01T00:24:47;6.47;;;1.83;;
20022;SDS011;10172;42.054;24.546;2023-04-01T00:27:13;4.20;;;2.15;;
20022;SDS011;10172;42.054;24.546;2023-04-01T00:29:41;3.05;;;1.92;;
20022;SDS011;10172;42.054;24.546;2023-04-01T00:32:07;4.15;;;1.63;;
20022;SDS011;10172;42.054;24.546;2023-04-01T00:34:33;7.20;;;3.95;;
20022;SDS011;10172;42.054;24.546;2023-04-01T00:36:58;2.20;;;1.73;;
20022;SDS011;10172;42.054;24.546;2023-04-01T00:39:24;6.75;;;2.10;;
20022;SDS011;10172;42.054;24.546;2023-04-01T00:41:49;4.32;;;1.98;;
20022;SDS011;10172;42.054;24.546;2023-04-01T00:44:22;3.15;;;1.58;;
20022;SDS011;10172;42.054;24.546;2023-04-01T00:46:49;3.20;;;1.85;;
20022;SDS011;10172;42.054;24.546;2023-04-01T00:49:17;6.88;;;2.05;;
20022;SDS011;10172;42.054;24.546;2023-04-01T00:51:45;2.53;;;1.60;;
20022;SDS011;10172;42.054;24.546;2023-04-01T00:54:13;3.47;;;1.65;;
20022;SDS011;10172;42.054;24.546;2023-04-01T00:56:48;2.92;;;1.45;;
20022;SDS011;10172;42.054;24.546;2023-04-01T00:59:28;2.72;;;1.60;;
20022;SDS011;10172;42.054;24.546;2023-04-01T01:01:55;2.80;;;1.60;;
20022;SDS011;10172;42.054;24.546;2023-04-01T01:15:20;2.83;;;1.90;;
20022;SDS011;10172;42.054;24.546;2023-04-01T01:37:15;3.60;;;2.00;;
20022;SDS011;10172;42.054;24.546;2023-04-01T01:39:43;2.80;;;1.75;;
20022;SDS011;10172;42.054;24.546;2023-04-01T01:42:13;3.08;;;1.80;;
20022;SDS011;10172;42.054;24.546;2023-04-01T01:44:42;4.38;;;2.42;;
20022;SDS011;10172;42.054;24.546;2023-04-01T01:47:10;5.93;;;1.98;;
20022;SDS011;10172;42.054;24.546;2023-04-01T01:49:37;5.88;;;2.22;;
20022;SDS011;10172;42.054;24.546;2023-04-01T01:52:05;2.70;;;1.92;;
20022;SDS011;10172;42.054;24.546;2023-04-01T01:54:31;4.20;;;1.90;;
20022;SDS011;10172;42.054;24.546;2023-04-01T01:56:59;2.95;;;1.85;;
20022;SDS011;10172;42.054;24.546;2023-04-01T01:59:30;11.57;;;2.92;;
20022;SDS011;10172;42.054;24.546;2023-04-01T02:01:58;4.53;;;2.45;;
20022;SDS011;10172;42.054;24.546;2023-04-01T02:04:25;5.78;;;2.53;;
20022;SDS011;10172;42.054;24.546;2023-04-01T02:06:59;5.50;;;2.50;;
20022;SDS011;10172;42.054;24.546;2023-04-01T02:09:28;5.05;;;2.30;;
20022;SDS011;10172;42.054;24.546;2023-04-01T02:12:02;5.88;;;2.42;;
20022;SDS011;10172;42.054;24.546;2023-04-01T02:17:02;5.30;;;2.45;;
20022;SDS011;10172;42.054;24.546;2023-04-01T02:19:33;3.67;;;2.33;;
20022;SDS011;10172;42.054;24.546;2023-04-01T02:22:04;9.50;;;2.75;;
20022;SDS011;10172;42.054;24.546;2023-04-01T02:24:34;3.22;;;2.00;;
20022;SDS011;10172;42.054;24.546;2023-04-01T02:27:01;4.78;;;2.17;;
20022;SDS011;10172;42.054;24.546;2023-04-01T02:29:26;2.38;;;1.80;;
20022;SDS011;10172;42.054;24.546;2023-04-01T02:31:52;5.05;;;2.10;;
20022;SDS011;10172;42.054;24.546;2023-04-01T02:34:20;4.45;;;2.45;;
20022;SDS011;10172;42.054;24.546;2023-04-01T02:36:48;5.20;;;3.03;;
20022;SDS011;10172;42.054;24.546;2023-04-01T02:39:15;9.13;;;4.00;;
20022;SDS011;10172;42.054;24.546;2023-04-01T02:41:41;5.38;;;2.78;;
20022;SDS011;10172;42.054;24.546;2023-04-01T02:44:08;4.70;;;2.20;;
20022;SDS011;10172;42.054;24.546;2023-04-01T02:46:35;5.22;;;2.85;;
20022;SDS011;10172;42.054;24.546;2023-04-01T02:49:01;3.75;;;2.28;;
20022;SDS011;10172;42.054;24.546;2023-04-01T02:51:26;8.32;;;3.20;;
20022;SDS011;10172;42.054;24.546;2023-04-01T02:53:52;4.35;;;2.67;;
20022;SDS011;10172;42.054;24.546;2023-04-01T02:56:17;9.35;;;2.65;;
20022;SDS011;10172;42.054;24.546;2023-04-01T02:58:44;8.73;;;2.95;;
20022;SDS011;10172;42.054;24.546;2023-04-01T03:01:10;6.20;;;2.80;;
20022;SDS011;10172;42.054;24.546;2023-04-01T03:03:35;7.90;;;2.83;;
20022;SDS011;10172;42.054;24.546;2023-04-01T03:06:07;6.72;;;2.97;;
20022;SDS011;10172;42.054;24.546;2023-04-01T03:08:34;8.57;;;2.80;;
20022;SDS011;10172;42.054;24.546;2023-04-01T03:11:00;3.42;;;2.20;;
20022;SDS011;10172;42.054;24.546;2023-04-01T03:13:25;4.15;;;2.45;;
20022;SDS011;10172;42.054;24.546;2023-04-01T03:15:51;4.55;;;2.72;;
20022;SDS011;10172;42.054;24.546;2023-04-01T03:18:16;6.55;;;2.80;;
20022;SDS011;10172;42.054;24.546;2023-04-01T03:20:42;5.40;;;2.92;;
20022;SDS011;10172;42.054;24.546;2023-04-01T03:23:08;6.00;;;3.13;;
20022;SDS011;10172;42.054;24.546;2023-04-01T03:25:33;4.82;;;2.40;;
20022;SDS011;10172;42.054;24.546;2023-04-01T03:27:59;8.95;;;2.63;;
20022;SDS011;10172;42.054;24.546;2023-04-01T03:30:24;7.63;;;2.85;;
20022;SDS011;10172;42.054;24.546;2023-04-01T03:32:50;4.45;;;2.28;;
20022;SDS011;10172;42.054;24.546;2023-04-01T03:35:16;3.08;;;2.08;;
20022;SDS011;10172;42.054;24.546;2023-04-01T03:37:42;3.95;;;2.65;;
20022;SDS011;10172;42.054;24.546;2023-04-01T03:40:07;3.85;;;2.30;;
20022;SDS011;10172;42.054;24.546;2023-04-01T03:42:33;5.40;;;2.80;;
20022;SDS011;10172;42.054;24.546;2023-04-01T03:44:59;2.40;;;2.00;;
20022;SDS011;10172;42.054;24.546;2023-04-01T03:47:25;7.88;;;4.03;;
20022;SDS011;10172;42.054;24.546;2023-04-01T03:49:50;7.32;;;2.47;;
20022;SDS011;10172;42.054;24.546;2023-04-01T03:52:16;3.63;;;2.22;;
20022;SDS011;10172;42.054;24.546;2023-04-01T03:54:41;7.65;;;2.20;;
20022;SDS011;10172;42.054;24.546;2023-04-01T03:57:07;3.45;;;2.03;;
20022;SDS011;10172;42.054;24.546;2023-04-01T03:59:32;3.28;;;1.83;;
20022;SDS011;10172;42.054;24.546;2023-04-01T04:01:58;5.15;;;2.10;;
20022;SDS011;10172;42.054;24.546;2023-04-01T04:04:23;2.80;;;2.28;;
20022;SDS011;10172;42.054;24.546;2023-04-01T04:06:49;3.22;;;2.00;;
20022;SDS011;10172;42.054;24.546;2023-04-01T04:09:16;5.28;;;2.25;;
20022;SDS011;10172;42.054;24.546;2023-04-01T04:11:41;5.80;;;1.88;;
20022;SDS011;10172;42.054;24.546;2023-04-01T04:14:07;2.65;;;1.60;;
20022;SDS011;10172;42.054;24.546;2023-04-01T04:16:34;4.15;;;2.35;;
20022;SDS011;10172;42.054;24.546;2023-04-01T04:19:01;5.97;;;1.90;;
20022;SDS011;10172;42.054;24.546;2023-04-01T04:21:27;4.85;;;1.75;;
20022;SDS011;10172;42.054;24.546;2023-04-01T04:23:53;2.22;;;1.50;;
20022;SDS011;10172;42.054;24.546;2023-04-01T04:26:18;3.38;;;1.83;;
20022;SDS011;10172;42.054;24.546;2023-04-01T04:28:44;6.18;;;2.40;;
20022;SDS011;10172;42.054;24.546;2023-04-01T04:31:09;5.75;;;2.55;;
20022;SDS011;10172;42.054;24.546;2023-04-01T04:33:35;4.65;;;1.77;;
20022;SDS011;10172;42.054;24.546;2023-04-01T04:36:01;3.58;;;2.28;;
20022;SDS011;10172;42.054;24.546;2023-04-01T04:38:27;4.57;;;2.83;;
20022;SDS011;10172;42.054;24.546;2023-04-01T04:40:53;9.57;;;5.40;;
20022;SDS011;10172;42.054;24.546;2023-04-01T04:43:19;14.30;;;5.85;;
20022;SDS011;10172;42.054;24.546;2023-04-01T04:45:45;11.77;;;5.88;;
20022;SDS011;10172;42.054;24.546;2023-04-01T04:48:12;13.43;;;6.57;;
20022;SDS011;10172;42.054;24.546;2023-04-01T04:50:43;9.27;;;6.00;;
20022;SDS011;10172;42.054;24.546;2023-04-01T04:53:18;12.57;;;6.78;;
20022;SDS011;10172;42.054;24.546;2023-04-01T04:55:45;11.05;;;6.30;;
20022;SDS011;10172;42.054;24.546;2023-04-01T04:58:15;16.02;;;7.60;;
20022;SDS011;10172;42.054;24.546;2023-04-01T05:00:41;11.15;;;6.57;;
20022;SDS011;10172;42.054;24.546;2023-04-01T05:03:07;9.43;;;5.93;;
20022;SDS011;10172;42.054;24.546;2023-04-01T05:05:32;9.77;;;5.60;;
20022;SDS011;10172;42.054;24.546;2023-04-01T05:07:58;9.45;;;5.53;;
20022;SDS011;10172;42.054;24.546;2023-04-01T05:10:23;12.30;;;6.82;;
20022;SDS011;10172;42.054;24.546;2023-04-01T05:12:49;11.82;;;5.60;;
20022;SDS011;10172;42.054;24.546;2023-04-01T05:15:15;11.48;;;5.90;;
20022;SDS011;10172;42.054;24.546;2023-04-01T05:17:40;9.18;;;6.80;;
20022;SDS011;10172;42.054;24.546;2023-04-01T05:20:06;19.83;;;10.05;;
20022;SDS011;10172;42.054;24.546;2023-04-01T05:22:32;24.48;;;10.13;;
20022;SDS011;10172;42.054;24.546;2023-04-01T05:24:58;19.40;;;9.43;;
20022;SDS011;10172;42.054;24.546;2023-04-01T05:27:23;21.63;;;10.30;;
20022;SDS011;10172;42.054;24.546;2023-04-01T05:29:49;18.25;;;9.57;;
20022;SDS011;10172;42.054;24.546;2023-04-01T05:32:14;14.95;;;8.50;;
20022;SDS011;10172;42.054;24.546;2023-04-01T05:34:40;20.83;;;10.57;;
20022;SDS011;10172;42.054;24.546;2023-04-01T05:37:05;23.98;;;11.68;;
20022;SDS011;10172;42.054;24.546;2023-04-01T05:39:35;28.10;;;11.23;;
20022;SDS011;10172;42.054;24.546;2023-04-01T05:42:05;31.90;;;14.57;;
20022;SDS011;10172;42.054;24.546;2023-04-01T05:44:32;25.90;;;14.82;;
20022;SDS011;10172;42.054;24.546;2023-04-01T05:46:57;34.63;;;15.25;;
20022;SDS011;10172;42.054;24.546;2023-04-01T05:49:23;24.13;;;12.43;;
20022;SDS011;10172;42.054;24.546;2023-04-01T05:51:48;31.02;;;13.77;;
20022;SDS011;10172;42.054;24.546;2023-04-01T05:54:14;23.35;;;11.02;;
20022;SDS011;10172;42.054;24.546;2023-04-01T05:56:39;16.75;;;10.27;;
20022;SDS011;10172;42.054;24.546;2023-04-01T05:59:05;24.25;;;13.90;;
20022;SDS011;10172;42.054;24.546;2023-04-01T06:01:30;18.42;;;9.90;;
20022;SDS011;10172;42.054;24.546;2023-04-01T06:03:56;18.33;;;9.40;;
20022;SDS011;10172;42.054;24.546;2023-04-01T06:06:26;12.68;;;9.20;;
20022;SDS011;10172;42.054;24.546;2023-04-01T06:08:52;22.85;;;11.85;;
20022;SDS011;10172;42.054;24.546;2023-04-01T06:14:20;19.77;;;11.55;;
20022;SDS011;10172;42.054;24.546;2023-04-01T06:46:45;14.27;;;8.27;;
20022;SDS011;10172;42.054;24.546;2023-04-01T06:57:14;10.45;;;7.18;;
20022;SDS011;10172;42.054;24.546;2023-04-01T06:59:41;59.40;;;25.20;;
20022;SDS011;10172;42.054;24.546;2023-04-01T07:04:40;28.23;;;13.25;;
20022;SDS011;10172;42.054;24.546;2023-04-01T07:10:00;15.85;;;7.57;;
20022;SDS011;10172;42.054;24.546;2023-04-01T07:18:18;15.57;;;8.63;;
20022;SDS011;10172;42.054;24.546;2023-04-01T07:20:48;15.95;;;8.02;;
20022;SDS011;10172;42.054;24.546;2023-04-01T07:25:58;15.98;;;8.88;;
20022;SDS011;10172;42.054;24.546;2023-04-01T07:28:26;14.80;;;8.95;;
20022;SDS011;10172;42.054;24.546;2023-04-01T07:33:45;16.17;;;9.45;;
20022;SDS011;10172;42.054;24.546;2023-04-01T07:36:24;13.23;;;8.90;;
20022;SDS011;10172;42.054;24.546;2023-04-01T07:39:28;11.27;;;6.95;;
20022;SDS011;10172;42.054;24.546;2023-04-01T07:42:01;10.75;;;7.15;;
20022;SDS011;10172;42.054;24.546;2023-04-01T07:50:36;15.73;;;7.70;;
20022;SDS011;10172;42.054;24.546;2023-04-01T08:06:14;16.13;;;10.40;;
20022;SDS011;10172;42.054;24.546;2023-04-01T08:11:35;11.77;;;7.82;;
20022;SDS011;10172;42.054;24.546;2023-04-01T08:22:26;11.98;;;7.95;;
20022;SDS011;10172;42.054;24.546;2023-04-01T08:24:55;9.73;;;6.43;;
20022;SDS011;10172;42.054;24.546;2023-04-01T08:30:34;16.75;;;7.55;;
20022;SDS011;10172;42.054;24.546;2023-04-01T08:33:12;15.38;;;8.38;;
20022;SDS011;10172;42.054;24.546;2023-04-01T08:38:42;15.73;;;7.88;;
20022;SDS011;10172;42.054;24.546;2023-04-01T08:41:16;12.10;;;7.20;;
20022;SDS011;10172;42.054;24.546;2023-04-01T08:52:18;8.80;;;6.20;;
20022;SDS011;10172;42.054;24.546;2023-04-01T09:06:57;10.20;;;5.78;;
20022;SDS011;10172;42.054;24.546;2023-04-01T09:29:35;12.10;;;6.13;;
20022;SDS011;10172;42.054;24.546;2023-04-01T09:32:18;8.68;;;5.13;;
20022;SDS011;10172;42.054;24.546;2023-04-01T09:35:16;9.48;;;6.50;;
20022;SDS011;10172;42.054;24.546;2023-04-01T09:38:28;10.55;;;5.85;;
20022;SDS011;10172;42.054;24.546;2023-04-01T09:57:39;11.02;;;6.68;;
20022;SDS011;10172;42.054;24.546;2023-04-01T10:00:38;9.27;;;6.25;;
20022;SDS011;10172;42.054;24.546;2023-04-01T10:06:21;12.27;;;6.30;;
20022;SDS011;10172;42.054;24.546;2023-04-01T10:14:22;9.35;;;5.30;;
20022;SDS011;10172;42.054;24.546;2023-04-01T10:53:38;8.60;;;4.35;;
20022;SDS011;10172;42.054;24.546;2023-04-01T10:59:31;12.10;;;5.00;;
20022;SDS011;10172;42.054;24.546;2023-04-01T11:07:51;7.80;;;4.20;;
20022;SDS011;10172;42.054;24.546;2023-04-01T11:23:32;7.57;;;3.45;;
20022;SDS011;10172;42.054;24.546;2023-04-01T11:48:13;4.65;;;2.85;;
20022;SDS011;10172;42.054;24.546;2023-04-01T11:53:42;6.18;;;2.95;;
20022;SDS011;10172;42.054;24.546;2023-04-01T11:59:13;9.02;;;4.05;;
20022;SDS011;10172;42.054;24.546;2023-04-01T12:11:00;20.02;;;5.53;;
20022;SDS011;10172;42.054;24.546;2023-04-01T12:13:58;7.57;;;4.57;;
20022;SDS011;10172;42.054;24.546;2023-04-01T12:21:52;7.20;;;3.30;;
20022;SDS011;10172;42.054;24.546;2023-04-01T12:24:29;8.00;;;3.90;;
20022;SDS011;10172;42.054;24.546;2023-04-01T12:27:04;6.82;;;3.60;;
20022;SDS011;10172;42.054;24.546;2023-04-01T12:46:39;7.50;;;4.30;;
20022;SDS011;10172;42.054;24.546;2023-04-01T13:20:48;8.27;;;5.20;;
20022;SDS011;10172;42.054;24.546;2023-04-01T13:23:29;10.05;;;5.32;;
20022;SDS011;10172;42.054;24.546;2023-04-01T13:36:41;12.35;;;6.82;;
20022;SDS011;10172;42.054;24.546;2023-04-01T13:39:15;9.40;;;6.05;;
20022;SDS011;10172;42.054;24.546;2023-04-01T13:41:53;6.10;;;3.67;;
20022;SDS011;10172;42.054;24.546;2023-04-01T13:49:47;8.70;;;4.72;;
20022;SDS011;10172;42.054;24.546;2023-04-01T13:52:32;4.82;;;2.90;;
20022;SDS011;10172;42.054;24.546;2023-04-01T13:55:28;6.40;;;4.32;;
20022;SDS011;10172;42.054;24.546;2023-04-01T14:00:38;8.45;;;4.47;;
20022;SDS011;10172;42.054;24.546;2023-04-01T14:08:36;10.27;;;5.68;;
20022;SDS011;10172;42.054;24.546;2023-04-01T14:54:41;5.63;;;2.80;;
20022;SDS011;10172;42.054;24.546;2023-04-01T14:57:12;6.95;;;3.10;;
20022;SDS011;10172;42.054;24.546;2023-04-01T14:59:40;6.90;;;3.88;;
20022;SDS011;10172;42.054;24.546;2023-04-01T15:05:12;5.70;;;3.58;;
20022;SDS011;10172;42.054;24.546;2023-04-01T15:14:22;4.90;;;3.03;;
20022;SDS011;10172;42.054;24.546;2023-04-01T15:16:59;8.98;;;4.45;;
20022;SDS011;10172;42.054;24.546;2023-04-01T15:28:19;5.55;;;3.08;;
20022;SDS011;10172;42.054;24.546;2023-04-01T15:39:00;7.18;;;3.53;;
20022;SDS011;10172;42.054;24.546;2023-04-01T16:03:52;8.30;;;4.18;;
20022;SDS011;10172;42.054;24.546;2023-04-01T16:12:18;9.50;;;5.70;;
20022;SDS011;10172;42.054;24.546;2023-04-01T16:20:46;4.40;;;3.08;;
20022;SDS011;10172;42.054;24.546;2023-04-01T16:23:18;4.65;;;3.15;;
20022;SDS011;10172;42.054;24.546;2023-04-01T16:28:53;8.20;;;4.40;;
20022;SDS011;10172;42.054;24.546;2023-04-01T16:31:36;5.82;;;2.97;;
20022;SDS011;10172;42.054;24.546;2023-04-01T16:42:38;6.50;;;3.10;;
20022;SDS011;10172;42.054;24.546;2023-04-01T16:44:49;3.83;;;2.58;;
20022;SDS011;10172;42.054;24.546;2023-04-01T16:48:01;7.00;;;4.22;;
20022;SDS011;10172;42.054;24.546;2023-04-01T16:50:24;7.15;;;4.40;;
20022;SDS011;10172;42.054;24.546;2023-04-01T17:01:23;7.63;;;3.15;;
20022;SDS011;10172;42.054;24.546;2023-04-01T17:04:10;7.63;;;2.80;;
20022;SDS011;10172;42.054;24.546;2023-04-01T17:06:53;4.20;;;2.83;;
20022;SDS011;10172;42.054;24.546;2023-04-01T17:25:42;6.00;;;2.25;;
20022;SDS011;10172;42.054;24.546;2023-04-01T17:33:50;6.80;;;3.10;;
20022;SDS011;10172;42.054;24.546;2023-04-01T17:36:27;5.30;;;2.60;;
20022;SDS011;10172;42.054;24.546;2023-04-01T17:41:57;8.45;;;5.72;;
20022;SDS011;10172;42.054;24.546;2023-04-01T17:44:52;5.55;;;2.88;;
20022;SDS011;10172;42.054;24.546;2023-04-01T17:51:06;4.22;;;2.40;;
20022;SDS011;10172;42.054;24.546;2023-04-01T17:56:34;1.92;;;1.15;;
20022;SDS011;10172;42.054;24.546;2023-04-01T18:10:55;2.83;;;1.60;;
20022;SDS011;10172;42.054;24.546;2023-04-01T18:16:21;4.72;;;2.10;;
20022;SDS011;10172;42.054;24.546;2023-04-01T18:24:02;2.45;;;1.40;;
20022;SDS011;10172;42.054;24.546;2023-04-01T18:26:50;2.63;;;1.58;;
20022;SDS011;10172;42.054;24.546;2023-04-01T18:32:35;3.13;;;2.22;;
20022;SDS011;10172;42.054;24.546;2023-04-01T18:38:11;2.17;;;0.73;;
20022;SDS011;10172;42.054;24.546;2023-04-01T18:41:07;4.28;;;1.30;;
20022;SDS011;10172;42.054;24.546;2023-04-01T18:43:57;1.58;;;0.95;;
20022;SDS011;10172;42.054;24.546;2023-04-01T18:46:39;0.90;;;0.60;;
20022;SDS011;10172;42.054;24.546;2023-04-01T18:49:33;0.55;;;0.52;;
20022;SDS011;10172;42.054;24.546;2023-04-01T18:57:49;2.05;;;0.90;;
20022;SDS011;10172;42.054;24.546;2023-04-01T19:00:36;5.07;;;2.35;;
20022;SDS011;10172;42.054;24.546;2023-04-01T19:03:21;60.95;;;28.63;;
20022;SDS011;10172;42.054;24.546;2023-04-01T19:05:53;19.13;;;8.15;;
20022;SDS011;10172;42.054;24.546;2023-04-01T19:14:03;2.20;;;1.63;;
20022;SDS011;10172;42.054;24.546;2023-04-01T19:17:13;27.23;;;10.48;;
20022;SDS011;10172;42.054;24.546;2023-04-01T19:28:57;6.50;;;3.42;;
20022;SDS011;10172;42.054;24.546;2023-04-01T19:47:51;4.93;;;1.27;;
20022;SDS011;10172;42.054;24.546;2023-04-01T19:56:15;1.42;;;0.98;;
20022;SDS011;10172;42.054;24.546;2023-04-01T20:01:34;2.90;;;1.50;;
20022;SDS011;10172;42.054;24.546;2023-04-01T20:17:50;6.38;;;4.95;;
20022;SDS011;10172;42.054;24.546;2023-04-01T20:20:26;15.35;;;13.38;;
20022;SDS011;10172;42.054;24.546;2023-04-01T20:22:55;8.65;;;4.00;;
20022;SDS011;10172;42.054;24.546;2023-04-01T20:30:46;5.20;;;1.88;;
20022;SDS011;10172;42.054;24.546;2023-04-01T20:36:16;4.45;;;2.38;;
20022;SDS011;10172;42.054;24.546;2023-04-01T20:41:59;9.82;;;3.35;;
20022;SDS011;10172;42.054;24.546;2023-04-01T20:44:46;12.40;;;6.45;;
20022;SDS011;10172;42.054;24.546;2023-04-01T20:52:36;5.65;;;2.40;;
20022;SDS011;10172;42.054;24.546;2023-04-01T20:55:21;15.45;;;6.93;;
20022;SDS011;10172;42.054;24.546;2023-04-01T21:00:38;8.95;;;4.10;;
20022;SDS011;10172;42.054;24.546;2023-04-01T21:17:51;3.83;;;1.75;;
20022;SDS011;10172;42.054;24.546;2023-04-01T21:37:09;4.65;;;1.13;;
20022;SDS011;10172;42.054;24.546;2023-04-01T21:47:46;7.68;;;2.35;;
20022;SDS011;10172;42.054;24.546;2023-04-01T21:50:39;6.63;;;2.15;;
20022;SDS011;10172;42.054;24.546;2023-04-01T21:53:15;3.47;;;1.70;;
20022;SDS011;10172;42.054;24.546;2023-04-01T22:07:25;2.08;;;1.10;;
20022;SDS011;10172;42.054;24.546;2023-04-01T22:12:52;1.00;;;0.90;;
20022;SDS011;10172;42.054;24.546;2023-04-01T22:18:19;1.30;;;1.10;;
20022;SDS011;10172;42.054;24.546;2023-04-01T22:29:54;0.50;;;0.50;;
20022;SDS011;10172;42.054;24.546;2023-04-01T22:37:34;3.05;;;1.10;;
20022;SDS011;10172;42.054;24.546;2023-04-01T22:45:21;1.23;;;0.70;;
20022;SDS011;10172;42.054;24.546;2023-04-01T22:56:24;1.20;;;0.88;;
20022;SDS011;10172;42.054;24.546;2023-04-01T22:58:56;1.42;;;0.60;;
20022;SDS011;10172;42.054;24.546;2023-04-01T23:01:32;1.30;;;0.80;;
20022;SDS011;10172;42.054;24.546;2023-04-01T23:04:03;0.60;;;0.60;;
20022;SDS011;10172;42.054;24.546;2023-04-01T23:06:35;0.95;;;0.60;;
20022;SDS011;10172;42.054;24.546;2023-04-01T23:17:36;2.95;;;1.95;;
20022;SDS011;10172;42.054;24.546;2023-04-01T23:22:33;1.98;;;0.90;;
20022;SDS011;10172;42.054;24.546;2023-04-01T23:25:17;0.60;;;0.60;;
20022;SDS011;10172;42.054;24.546;2023-04-01T23:27:53;1.38;;;0.70;;
20022;SDS011;10172;42.054;24.546;2023-04-01T23:36:21;2.78;;;1.13;;
20022;SDS011;10172;42.054;24.546;2023-04-01T23:38:41;3.85;;;1.60;;
20022;SDS011;10172;42.054;24.546;2023-04-01T23:41:07;1.30;;;0.93;;
20022;SDS011;10172;42.054;24.546;2023-04-01T23:43:42;1.25;;;0.90;;
20022;SDS011;10172;42.054;24.546;2023-04-01T23:46:09;1.02;;;0.70;;
20022;SDS011;10172;42.054;24.546;2023-04-01T23:48:41;0.50;;;0.50;;
20022;SDS011;10172;42.054;24.546;2023-04-01T23:51:36;1.00;;;0.65;;
20022;SDS011;10172;42.054;24.546;2023-04-01T23:54:11;1.23;;;0.73;;
20022;SDS011;10172;42.054;24.546;2023-04-01T23:56:46;2.22;;;1.52;;
20022;SDS011;10172;42.054;24.546;2023-04-01T23:59:22;2.63;;;1.55;;
